Time;durP1;ratioP1;P1;durP2;ratioP2;P2;SDS_P1;SDS_P2;PMS_P1;PMS_P2;Temp;Humidity;BMP_temperature;BMP_pressure;BME280_temperature;BME280_humidity;BME280_pressure;Samples;Min_cycle;Max_cycle;Signal;HPM_P1;HPM_P2
2022/03/18 00:00:14;;;;;;;;;13.00;12.00;;;;;9.90;58.30;103414.44;5020051;28;45406;-76
2022/03/18 00:02:41;;;;;;;;;11.00;9.00;;;;;9.89;58.13;103406.44;5020212;28;46906;-76
2022/03/18 00:05:07;;;;;;;;;11.50;9.75;;;;;9.90;57.97;103408.25;5037768;28;45339;-75
2022/03/18 00:07:32;;;;;;;;;15.00;11.25;;;;;9.89;57.75;103415.28;5037313;28;45223;-75
2022/03/18 00:09:58;;;;;;;;;10.50;10.50;;;;;9.87;57.95;103411.66;5019349;28;54217;-74
2022/03/18 00:12:23;;;;;;;;;13.75;10.00;;;;;9.85;57.77;103413.28;5035647;28;45800;-75
2022/03/18 00:14:48;;;;;;;;;12.75;11.75;;;;;9.81;57.91;103406.03;5018161;28;57414;-75
2022/03/18 00:17:14;;;;;;;;;18.00;12.50;;;;;9.82;57.63;103401.66;5036629;28;56186;-76
2022/03/18 00:19:39;;;;;;;;;12.25;8.25;;;;;9.77;57.81;103393.50;5017868;28;52153;-76
2022/03/18 00:22:05;;;;;;;;;15.25;11.50;;;;;9.77;57.70;103403.16;5019116;28;48389;-76
2022/03/18 00:24:32;;;;;;;;;14.75;12.25;;;;;9.74;57.91;103405.59;5018618;28;45364;-74
2022/03/18 00:26:58;;;;;;;;;13.25;11.00;;;;;9.71;57.61;103406.34;5019403;28;45497;-75
2022/03/18 00:29:25;;;;;;;;;13.75;11.00;;;;;9.69;57.53;103410.63;5019553;28;45327;-75
2022/03/18 00:31:50;;;;;;;;;12.25;11.75;;;;;9.64;57.71;103412.09;5014898;28;47505;-75
2022/03/18 00:34:16;;;;;;;;;14.25;12.00;;;;;9.62;57.75;103414.66;5000129;28;45530;-75
2022/03/18 00:36:41;;;;;;;;;12.00;9.25;;;;;9.61;57.85;103411.94;5018664;28;53399;-74
2022/03/18 00:39:07;;;;;;;;;12.00;9.50;;;;;9.58;57.90;103412.66;5037161;28;45192;-74
2022/03/18 00:41:32;;;;;;;;;14.25;9.00;;;;;9.58;57.75;103427.56;5018948;28;45885;-74
2022/03/18 00:43:58;;;;;;;;;13.00;10.25;;;;;9.55;57.69;103420.41;5018738;28;45647;-74
2022/03/18 00:46:24;;;;;;;;;9.50;8.00;;;;;9.46;57.69;103404.06;5035620;28;55037;-74
2022/03/18 00:54:18;;;;;;;;;14.25;11.25;;;;;9.48;57.93;103425.22;5034204;28;45481;-74
2022/03/18 00:56:43;;;;;;;;;16.50;11.50;;;;;9.44;58.04;103417.16;5035133;28;55210;-74
2022/03/18 00:59:09;;;;;;;;;13.75;11.00;;;;;9.37;58.26;103407.06;5018524;28;50564;-75
2022/03/18 01:01:35;;;;;;;;;17.00;10.50;;;;;9.18;58.04;103378.75;5036384;28;46794;-76
2022/03/18 01:04:00;;;;;;;;;15.25;8.75;;;;;9.25;58.09;103392.28;5001733;28;45500;-75
2022/03/18 01:06:26;;;;;;;;;12.50;8.75;;;;;9.31;58.04;103409.34;5018901;28;45310;-75
2022/03/18 01:08:51;;;;;;;;;10.75;8.75;;;;;9.26;57.86;103402.91;5018105;28;55610;-75
2022/03/18 01:11:17;;;;;;;;;12.50;10.00;;;;;9.26;58.20;103413.44;5018836;28;45876;-76
2022/03/18 01:13:42;;;;;;;;;16.25;11.25;;;;;9.21;58.29;103414.00;5017563;28;59086;-74
2022/03/18 01:16:08;;;;;;;;;14.00;9.75;;;;;9.19;58.17;103417.47;5018797;28;45722;-77
2022/03/18 01:18:33;;;;;;;;;11.25;8.50;;;;;9.21;58.50;103420.19;5018378;28;50451;-75
2022/03/18 01:20:58;;;;;;;;;17.75;12.00;;;;;8.99;58.41;103396.94;5018696;28;46427;-74
2022/03/18 01:23:25;;;;;;;;;16.25;12.00;;;;;9.13;58.38;103430.28;5035960;28;48905;-74
2022/03/18 01:25:50;;;;;;;;;13.00;11.00;;;;;9.12;58.30;103424.94;5018502;28;45565;-75
2022/03/18 01:28:16;;;;;;;;;12.50;10.75;;;;;9.08;58.41;103421.22;5039236;28;45361;-74
2022/03/18 01:30:41;;;;;;;;;16.25;11.00;;;;;9.06;58.72;103432.50;5018601;28;46431;-74
2022/03/18 01:33:07;;;;;;;;;14.25;12.50;;;;;8.93;58.90;103415.94;5021786;28;45594;-74
2022/03/18 01:35:32;;;;;;;;;15.00;12.25;;;;;9.01;58.90;103431.31;5004948;28;45369;-75
2022/03/18 01:37:58;;;;;;;;;17.50;13.00;;;;;8.99;59.04;103436.47;5039627;28;54500;-74
2022/03/18 01:40:23;;;;;;;;;17.75;13.00;;;;;8.87;59.17;103422.59;5038771;28;58316;-74
2022/03/18 01:42:49;;;;;;;;;23.00;18.00;;;;;8.97;59.02;103437.22;5038727;28;58301;-75
2022/03/18 01:45:14;;;;;;;;;16.75;11.75;;;;;8.92;59.37;103435.22;5021148;28;45391;-75
2022/03/18 01:47:43;;;;;;;;;18.75;18.25;;;;;8.90;59.26;103435.94;5039433;28;46871;-74
2022/03/18 01:50:13;;;;;;;;;18.25;15.50;;;;;8.87;59.24;103436.66;5039030;28;45513;-74
2022/03/18 01:52:38;;;;;;;;;18.25;14.25;;;;;8.79;59.44;103426.47;5021132;28;45227;-74
2022/03/18 01:55:04;;;;;;;;;18.75;17.00;;;;;8.90;59.56;103447.41;5004421;28;45472;-74
2022/03/18 01:57:30;;;;;;;;;17.75;14.25;;;;;8.90;59.54;103439.50;5021079;28;45293;-74
2022/03/18 01:59:56;;;;;;;;;20.50;17.00;;;;;8.88;59.60;103437.56;5004887;28;46271;-75
2022/03/18 02:02:21;;;;;;;;;23.75;16.50;;;;;8.89;59.68;103448.22;5038850;28;45262;-75
2022/03/18 02:04:47;;;;;;;;;19.00;16.50;;;;;8.85;59.77;103435.69;5039470;28;45415;-74
2022/03/18 02:07:12;;;;;;;;;18.00;15.75;;;;;8.84;59.79;103441.75;5021526;28;45463;-74
2022/03/18 02:09:38;;;;;;;;;21.75;17.25;;;;;8.83;59.72;103444.28;5021404;28;46429;-74
2022/03/18 02:12:04;;;;;;;;;21.75;18.00;;;;;8.71;59.85;103428.66;5021179;28;45333;-75
2022/03/18 02:14:33;;;;;;;;;16.00;13.25;;;;;8.79;60.00;103445.84;5021409;28;45327;-74
2022/03/18 02:16:59;;;;;;;;;19.75;18.50;;;;;8.62;59.72;103421.09;5021378;28;45543;-75
2022/03/18 02:19:25;;;;;;;;;22.50;20.50;;;;;8.61;59.71;103418.38;5021390;28;46768;-74
2022/03/18 02:21:53;;;;;;;;;21.25;16.50;;;;;8.70;59.94;103445.28;5020991;28;45328;-74
2022/03/18 02:24:19;;;;;;;;;21.00;17.00;;;;;8.69;60.04;103439.94;5021209;28;45401;-74
2022/03/18 02:26:49;;;;;;;;;20.25;16.50;;;;;8.68;59.93;103453.91;5038567;28;45249;-74
2022/03/18 02:29:14;;;;;;;;;21.25;18.75;;;;;8.64;60.18;103444.91;5021193;28;46436;-74
2022/03/18 02:31:40;;;;;;;;;16.75;16.75;;;;;8.59;60.02;103434.09;5038223;28;54979;-74
2022/03/18 02:34:05;;;;;;;;;23.25;16.50;;;;;8.58;60.08;103444.56;5038755;28;45323;-75
2022/03/18 02:36:31;;;;;;;;;21.00;17.00;;;;;8.56;60.27;103435.63;5038678;28;47829;-74
2022/03/18 02:38:56;;;;;;;;;22.75;19.50;;;;;8.52;60.33;103434.56;5037458;28;59059;-75
2022/03/18 02:41:21;;;;;;;;;23.50;18.50;;;;;8.47;60.31;103424.53;5022494;28;57485;-75
2022/03/18 02:43:47;;;;;;;;;20.75;16.50;;;;;8.48;60.37;103432.53;5019863;28;56885;-75
2022/03/18 02:46:14;;;;;;;;;18.75;17.00;;;;;8.47;60.33;103429.78;5016431;28;45531;-74
2022/03/18 02:48:39;;;;;;;;;21.75;17.75;;;;;8.43;60.35;103433.97;5033447;28;46958;-74
2022/03/18 02:51:07;;;;;;;;;20.25;16.75;;;;;8.32;60.75;103421.84;5037512;28;45240;-75
2022/03/18 02:53:32;;;;;;;;;25.50;15.75;;;;;8.36;60.63;103440.59;5020864;28;45229;-74
2022/03/18 02:55:57;;;;;;;;;18.00;16.50;;;;;8.37;60.96;103444.13;5037188;28;45725;-74
2022/03/18 02:58:23;;;;;;;;;20.00;18.50;;;;;8.32;60.44;103441.19;5003548;28;46474;-74
2022/03/18 03:00:48;;;;;;;;;21.50;16.75;;;;;8.32;60.81;103445.53;5038339;28;45478;-74
2022/03/18 03:03:14;;;;;;;;;19.75;18.00;;;;;8.34;60.81;103450.06;5020739;28;45588;-75
2022/03/18 03:08:23;;;;;;;;;23.00;15.75;;;;;8.28;60.82;103439.16;5037604;28;45829;-75
2022/03/18 03:10:49;;;;;;;;;18.25;16.50;;;;;8.28;60.86;103451.41;5039019;28;45455;-75
2022/03/18 03:13:14;;;;;;;;;23.75;21.25;;;;;8.25;60.93;103444.22;5038623;28;45248;-74
2022/03/18 03:15:40;;;;;;;;;28.25;18.50;;;;;8.24;60.90;103444.13;5017784;28;45269;-75
2022/03/18 03:18:06;;;;;;;;;24.25;20.00;;;;;8.22;60.57;103449.31;5003925;28;45953;-73
2022/03/18 03:20:31;;;;;;;;;26.50;22.75;;;;;8.24;60.81;103458.22;5020382;28;45332;-74
2022/03/18 03:22:57;;;;;;;;;21.50;17.75;;;;;8.21;61.10;103460.66;5038165;28;45463;-75
2022/03/18 03:25:22;;;;;;;;;26.00;20.25;;;;;8.10;61.00;103443.28;5036648;28;45537;-74
2022/03/18 03:27:51;;;;;;;;;18.75;15.75;;;;;8.18;61.26;103468.34;5003625;28;48034;-74
2022/03/18 03:30:16;;;;;;;;;29.75;19.00;;;;;8.21;61.26;103467.66;5003448;28;45661;-74
2022/03/18 03:32:42;;;;;;;;;20.75;16.50;;;;;8.18;61.21;103463.09;5037606;28;56582;-75
2022/03/18 03:35:08;;;;;;;;;28.00;24.00;;;;;8.17;61.34;103463.00;5003279;28;45411;-74
2022/03/18 03:37:34;;;;;;;;;22.50;18.75;;;;;8.14;61.36;103467.25;5019702;28;45857;-75
2022/03/18 03:39:59;;;;;;;;;22.75;16.25;;;;;8.13;61.12;103461.88;5037804;28;45339;-74
2022/03/18 03:42:24;;;;;;;;;25.25;20.75;;;;;8.13;61.10;103462.78;5037678;28;46685;-76
2022/03/18 03:44:50;;;;;;;;;31.00;18.25;;;;;8.09;61.23;103458.13;5037746;28;45515;-75
2022/03/18 03:47:15;;;;;;;;;28.00;23.00;;;;;8.09;61.38;103460.78;5034672;28;60778;-73
2022/03/18 03:49:41;;;;;;;;;25.00;19.00;;;;;8.10;61.48;103461.72;5018794;28;51950;-75
2022/03/18 03:52:09;;;;;;;;;29.50;20.00;;;;;8.03;61.58;103446.31;5003384;28;45267;-73
2022/03/18 03:54:35;;;;;;;;;30.00;19.50;;;;;7.93;61.36;103428.13;5001609;28;45750;-74
2022/03/18 03:57:01;;;;;;;;;30.25;27.25;;;;;8.12;61.54;103463.63;5019266;28;46585;-74
2022/03/18 03:59:26;;;;;;;;;24.50;20.50;;;;;8.11;61.59;103456.53;5019818;28;47709;-74
2022/03/18 04:01:52;;;;;;;;;31.75;23.25;;;;;8.19;61.63;103478.06;5035332;28;55996;-75
2022/03/18 04:04:17;;;;;;;;;26.50;21.50;;;;;8.19;61.53;103475.44;5019906;28;45315;-75
2022/03/18 04:06:43;;;;;;;;;32.00;24.00;;;;;8.11;61.63;103460.91;5019281;28;46469;-74
2022/03/18 04:09:08;;;;;;;;;32.25;22.75;;;;;8.24;61.58;103479.25;5019552;28;45301;-74
2022/03/18 04:11:34;;;;;;;;;28.25;24.00;;;;;8.26;61.56;103482.00;5002456;28;56906;-75
2022/03/18 04:13:59;;;;;;;;;28.00;25.75;;;;;8.27;61.40;103478.56;5036915;28;51147;-75
2022/03/18 04:16:24;;;;;;;;;27.00;21.50;;;;;8.28;61.52;103481.28;5019003;28;45845;-74
2022/03/18 04:18:50;;;;;;;;;35.25;27.00;;;;;8.26;61.51;103480.28;5019109;28;45389;-74
2022/03/18 04:21:15;;;;;;;;;29.75;22.25;;;;;8.30;61.39;103492.81;5015080;28;51555;-74
2022/03/18 04:23:41;;;;;;;;;25.50;19.75;;;;;8.31;61.29;103492.03;5028395;28;45552;-74
2022/03/18 04:26:06;;;;;;;;;28.50;21.25;;;;;8.23;61.19;103489.69;5036630;28;46871;-74
2022/03/18 04:28:32;;;;;;;;;27.75;24.00;;;;;8.33;61.20;103507.91;5036967;28;45297;-74
2022/03/18 04:30:58;;;;;;;;;24.75;22.50;;;;;8.33;61.30;103513.16;5037132;28;45319;-74
2022/03/18 04:33:23;;;;;;;;;26.50;21.50;;;;;8.34;61.19;103515.88;5018199;28;45571;-74
2022/03/18 04:35:48;;;;;;;;;26.75;17.75;;;;;8.35;61.19;103515.06;5035859;28;60106;-73
2022/03/18 04:38:14;;;;;;;;;21.00;20.50;;;;;8.29;61.23;103500.63;5036454;28;53543;-75
2022/03/18 04:40:39;;;;;;;;;23.50;20.25;;;;;8.36;61.17;103522.22;5019011;28;45240;-73
2022/03/18 04:43:05;;;;;;;;;22.75;21.50;;;;;8.39;61.11;103518.84;5017674;28;53533;-74
2022/03/18 04:45:30;;;;;;;;;26.25;24.00;;;;;8.38;60.93;103509.13;5017388;28;47669;-75
2022/03/18 04:47:56;;;;;;;;;21.50;19.00;;;;;8.32;60.78;103504.38;5000711;28;54108;-75
2022/03/18 04:50:21;;;;;;;;;21.75;20.00;;;;;8.43;60.84;103517.31;5018797;28;45487;-73
2022/03/18 04:52:47;;;;;;;;;29.25;22.50;;;;;8.43;60.91;103514.69;5018147;28;50000;-74
2022/03/18 04:55:12;;;;;;;;;25.00;20.00;;;;;8.44;60.79;103524.41;5034964;28;46364;-74
2022/03/18 04:57:38;;;;;;;;;28.00;20.50;;;;;8.42;60.65;103513.78;5018987;28;45500;-76
2022/03/18 05:00:05;;;;;;;;;23.50;19.75;;;;;8.44;60.64;103514.78;5019033;28;45360;-74
2022/03/18 05:02:30;;;;;;;;;23.00;19.50;;;;;8.32;60.78;103501.72;5042223;28;45404;-74
2022/03/18 05:04:56;;;;;;;;;21.00;17.25;;;;;8.25;60.77;103495.97;5042549;28;58318;-74
2022/03/18 05:07:21;;;;;;;;;20.25;18.50;;;;;8.44;60.49;103529.66;5009064;28;45375;-74
2022/03/18 05:09:47;;;;;;;;;23.75;18.75;;;;;8.44;60.64;103534.94;5043108;28;45555;-75
2022/03/18 05:12:13;;;;;;;;;24.25;19.25;;;;;8.44;60.46;103533.22;5043288;28;45354;-74
2022/03/18 05:14:39;;;;;;;;;28.00;17.75;;;;;8.43;60.32;103530.50;5042561;28;46660;-74
2022/03/18 05:17:04;;;;;;;;;16.75;15.25;;;;;8.46;60.36;103541.19;5025017;28;45226;-75
2022/03/18 05:19:30;;;;;;;;;26.50;18.50;;;;;8.44;60.21;103533.22;5025124;28;45346;-74
2022/03/18 05:21:56;;;;;;;;;22.00;17.00;;;;;8.45;60.22;103531.47;5042738;28;45290;-76
2022/03/18 05:24:21;;;;;;;;;17.75;17.75;;;;;8.48;60.27;103552.75;5015699;28;47383;-75
2022/03/18 05:26:46;;;;;;;;;19.00;19.00;;;;;8.38;60.23;103532.81;5043153;28;45409;-75
2022/03/18 05:29:13;;;;;;;;;17.75;16.50;;;;;8.45;60.24;103531.47;5042004;28;53820;-74
2022/03/18 05:31:39;;;;;;;;;26.00;17.50;;;;;8.36;60.31;103534.44;5024793;28;45476;-76
2022/03/18 05:34:04;;;;;;;;;26.50;18.25;;;;;8.33;59.91;103537.75;5004289;28;45640;-75
2022/03/18 05:36:30;;;;;;;;;19.75;15.75;;;;;8.45;59.98;103564.00;5024602;28;46105;-74
2022/03/18 05:38:56;;;;;;;;;14.50;14.50;;;;;8.43;59.74;103543.66;5171860;22;45325;-74
2022/03/18 05:41:21;;;;;;;;;22.25;17.00;;;;;8.30;59.83;103513.88;5053578;28;45374;-73
2022/03/18 05:43:47;;;;;;;;;20.50;16.50;;;;;8.41;59.73;103556.69;5055197;28;55507;-73
2022/03/18 05:46:12;;;;;;;;;21.75;17.00;;;;;8.44;59.89;103558.63;5051508;28;54866;-76
2022/03/18 05:48:38;;;;;;;;;22.50;17.00;;;;;8.43;59.54;103544.56;5040237;28;45755;-74
2022/03/18 05:51:03;;;;;;;;;17.75;15.75;;;;;8.43;59.72;103554.19;5036121;28;45329;-76
2022/03/18 05:53:29;;;;;;;;;18.00;16.25;;;;;8.44;59.79;103549.00;5035212;28;45832;-74
2022/03/18 05:58:39;;;;;;;;;22.75;14.75;;;;;8.47;59.69;103550.91;5061021;28;45363;-75
2022/03/18 06:01:05;;;;;;;;;18.25;17.00;;;;;8.47;59.57;103553.53;5049775;28;53103;-74
2022/03/18 06:03:30;;;;;;;;;19.00;15.00;;;;;8.48;59.59;103571.19;5055786;28;45598;-73
2022/03/18 06:05:55;;;;;;;;;20.25;15.00;;;;;8.49;59.33;103551.94;5039949;28;52380;-74
2022/03/18 06:13:49;;;;;;;;;23.00;16.75;;;;;8.55;58.93;103570.75;5021465;28;45451;-77
2022/03/18 06:16:14;;;;;;;;;16.00;13.75;;;;;8.48;58.89;103555.38;5007447;28;45513;-80
2022/03/18 06:18:39;;;;;;;;;22.25;18.25;;;;;8.35;58.71;103545.75;5022530;28;54167;-79
2022/03/18 06:21:06;;;;;;;;;21.75;20.00;;;;;8.42;58.73;103558.53;5009177;28;50639;-78
2022/03/18 06:23:32;;;;;;;;;19.50;17.25;;;;;8.42;58.56;103563.81;5014280;28;47495;-78
2022/03/18 06:25:57;;;;;;;;;30.75;21.75;;;;;8.35;58.59;103559.81;5033676;28;45583;-80
2022/03/18 06:28:23;;;;;;;;;22.50;20.50;;;;;8.44;58.70;103577.06;5004040;28;50981;-80
2022/03/18 06:30:48;;;;;;;;;21.50;18.50;;;;;8.36;58.80;103555.50;5038357;28;45379;-79
2022/03/18 06:33:13;;;;;;;;;24.75;21.25;;;;;8.44;58.91;103571.78;5022810;28;64932;-79
2022/03/18 06:35:39;;;;;;;;;20.75;16.75;;;;;8.42;58.93;103578.69;5033088;28;58646;-78
2022/03/18 06:38:04;;;;;;;;;26.00;22.25;;;;;8.41;58.73;103577.75;5027203;28;50616;-79
2022/03/18 06:40:30;;;;;;;;;25.50;21.50;;;;;8.38;59.61;103554.78;5029729;28;45456;-78
2022/03/18 06:42:55;;;;;;;;;23.25;20.75;;;;;8.41;58.79;103564.59;5018035;28;47541;-79
2022/03/18 06:45:21;;;;;;;;;26.25;22.25;;;;;8.31;58.87;103542.03;5015936;28;45311;-78
2022/03/18 06:47:47;;;;;;;;;24.00;21.25;;;;;8.35;58.71;103554.56;5034237;28;45407;-78
2022/03/18 06:50:12;;;;;;;;;25.75;20.00;;;;;8.42;58.81;103578.69;5020494;28;45377;-79
2022/03/18 06:52:38;;;;;;;;;22.00;20.25;;;;;8.38;58.09;103578.50;5009335;28;64399;-78
2022/03/18 06:55:03;;;;;;;;;22.25;20.75;;;;;8.36;58.51;103572.22;5023317;28;59066;-77
2022/03/18 06:57:29;;;;;;;;;24.75;20.50;;;;;8.37;58.84;103570.50;5019989;28;45348;-78
2022/03/18 06:59:54;;;;;;;;;15.25;12.50;;;;;8.37;58.64;103565.25;5031708;28;48246;-77
2022/03/18 07:02:19;;;;;;;;;22.50;19.75;;;;;8.26;57.93;103563.63;5014964;28;61953;-77
2022/03/18 07:04:45;;;;;;;;;26.75;20.25;;;;;8.30;58.21;103584.94;5018372;28;55834;-79
2022/03/18 07:07:10;;;;;;;;;25.75;20.00;;;;;8.25;58.76;103577.56;5013862;28;45680;-77
2022/03/18 07:09:36;;;;;;;;;28.50;23.25;;;;;8.20;58.64;103581.63;5048770;28;45470;-80
2022/03/18 07:12:02;;;;;;;;;20.25;20.25;;;;;8.07;58.56;103570.31;5018630;28;46129;-78
2022/03/18 07:14:27;;;;;;;;;20.75;17.00;;;;;8.07;58.87;103565.03;5030199;28;45863;-76
2022/03/18 07:19:38;;;;;;;;;23.75;20.00;;;;;8.23;58.81;103585.38;5049344;28;45565;-76
2022/03/18 07:22:04;;;;;;;;;31.50;23.50;;;;;8.28;58.99;103586.56;5018381;28;46544;-77
2022/03/18 07:24:30;;;;;;;;;23.75;22.00;;;;;8.33;58.90;103577.25;5018901;28;45656;-77
2022/03/18 07:26:55;;;;;;;;;27.50;23.25;;;;;8.41;58.69;103585.66;5020129;28;45534;-77
2022/03/18 07:29:20;;;;;;;;;25.00;23.50;;;;;8.45;58.85;103576.25;5054251;28;54857;-78
2022/03/18 07:31:46;;;;;;;;;22.50;18.00;;;;;8.51;58.58;103574.00;5002705;28;59634;-76
2022/03/18 07:34:11;;;;;;;;;25.25;18.75;;;;;8.55;58.43;103563.75;5046387;28;46177;-78
2022/03/18 07:36:37;;;;;;;;;31.00;21.00;;;;;8.61;58.67;103569.41;5018906;28;55198;-78
2022/03/18 07:39:02;;;;;;;;;23.25;20.25;;;;;8.68;58.30;103572.41;5050829;28;52448;-77
2022/03/18 07:41:27;;;;;;;;;23.25;18.00;;;;;8.63;58.43;103549.34;5018616;28;60337;-77
2022/03/18 07:43:53;;;;;;;;;29.25;24.00;;;;;8.73;58.41;103557.81;5032261;28;45773;-76
2022/03/18 07:46:18;;;;;;;;;28.25;21.50;;;;;8.81;58.54;103580.28;5036878;28;50787;-76
2022/03/18 07:48:44;;;;;;;;;22.00;18.25;;;;;8.85;58.50;103577.94;5004959;28;45525;-79
2022/03/18 07:51:11;;;;;;;;;22.00;18.00;;;;;8.92;58.29;103581.88;5000463;28;48434;-76
2022/03/18 07:53:36;;;;;;;;;22.75;21.50;;;;;8.99;58.23;103594.59;5021274;28;45646;-76
2022/03/18 07:56:02;;;;;;;;;23.25;19.00;;;;;9.02;57.83;103592.16;5033411;28;45531;-77
2022/03/18 07:58:27;;;;;;;;;25.25;22.75;;;;;9.06;57.74;103591.53;5038493;28;45316;-77
2022/03/18 08:00:53;;;;;;;;;24.00;20.25;;;;;9.13;57.84;103598.09;5022462;28;45903;-77
2022/03/18 08:03:18;;;;;;;;;22.50;19.25;;;;;9.19;57.94;103598.47;5035761;28;57371;-77
2022/03/18 08:05:43;;;;;;;;;23.25;21.00;;;;;9.22;58.00;103589.84;5055236;28;51803;-78
2022/03/18 08:08:09;;;;;;;;;19.25;17.25;;;;;9.28;57.30;103601.66;5018528;28;48254;-78
2022/03/18 08:10:35;;;;;;;;;22.75;21.00;;;;;9.22;57.74;103585.47;5035390;28;48575;-76
2022/03/18 08:13:01;;;;;;;;;22.50;20.75;;;;;9.38;57.56;103593.50;5038522;28;45295;-77
2022/03/18 08:15:28;;;;;;;;;22.50;17.25;;;;;9.33;57.46;103583.50;5005355;28;57965;-78
2022/03/18 08:17:53;;;;;;;;;23.00;18.50;;;;;9.48;57.77;103608.16;5033666;28;47367;-76
2022/03/18 08:20:19;;;;;;;;;27.25;23.75;;;;;9.43;57.15;103586.78;5013159;28;45471;-78
2022/03/18 08:22:45;;;;;;;;;27.25;21.50;;;;;9.47;57.58;103590.47;5017408;28;45426;-77
2022/03/18 08:25:10;;;;;;;;;29.50;21.50;;;;;9.61;57.35;103608.03;5028392;28;53819;-77
2022/03/18 08:27:36;;;;;;;;;27.25;22.00;;;;;9.64;56.58;103609.94;5036664;28;50072;-78
2022/03/18 08:30:03;;;;;;;;;29.50;26.50;;;;;9.70;56.88;103605.06;5037404;28;46585;-77
2022/03/18 08:32:29;;;;;;;;;27.75;24.75;;;;;9.75;56.73;103606.22;5016445;28;46295;-79
2022/03/18 08:34:55;;;;;;;;;23.50;23.25;;;;;9.82;56.91;103610.13;5037285;28;45283;-77
2022/03/18 08:37:56;;;;;;;;;27.50;18.75;;;;;9.86;56.83;103615.69;5014249;28;45456;-76
2022/03/18 08:40:07;;;;;;;;;25.00;19.50;;;;;9.84;56.04;103595.28;5054372;28;46143;-77
2022/03/18 08:42:32;;;;;;;;;23.25;23.25;;;;;9.98;56.56;103607.56;5055225;28;46423;-76
2022/03/18 08:44:58;;;;;;;;;19.50;18.75;;;;;10.03;55.33;103610.47;5014963;28;45253;-77
2022/03/18 08:47:24;;;;;;;;;26.75;21.75;;;;;10.07;55.57;103607.19;5036998;28;45483;-78
2022/03/18 08:49:50;;;;;;;;;25.75;20.50;;;;;10.09;55.48;103594.97;5021433;28;46718;-77
2022/03/18 08:52:16;;;;;;;;;22.00;19.00;;;;;10.10;55.14;103583.59;5055939;28;54629;-77
2022/03/18 08:54:41;;;;;;;;;15.75;15.75;;;;;10.23;55.35;103604.63;5030613;28;45540;-78
2022/03/18 08:57:07;;;;;;;;;24.25;18.50;;;;;10.30;55.36;103609.44;5035032;28;45269;-77
2022/03/18 08:59:32;;;;;;;;;19.25;17.25;;;;;10.30;54.88;103588.31;5001466;28;62185;-78
2022/03/18 09:01:57;;;;;;;;;23.00;18.25;;;;;10.31;54.26;103589.22;5027236;28;45320;-76
2022/03/18 09:04:24;;;;;;;;;21.25;16.25;;;;;10.37;54.22;103587.81;5001384;28;46768;-77
2022/03/18 09:06:49;;;;;;;;;16.50;15.25;;;;;10.49;53.89;103604.38;5020039;28;45370;-77
2022/03/18 09:09:15;;;;;;;;;19.00;15.75;;;;;10.57;54.46;103607.44;5021430;28;47735;-77
2022/03/18 09:11:41;;;;;;;;;18.25;15.00;;;;;10.61;53.69;103608.53;5040177;28;45255;-78
2022/03/18 09:14:07;;;;;;;;;22.75;16.75;;;;;10.69;54.40;103601.91;5020707;28;45452;-77
2022/03/18 09:16:36;;;;;;;;;13.50;12.00;;;;;10.73;53.61;103598.63;5037874;28;54748;-78
2022/03/18 09:19:02;;;;;;;;;11.00;10.50;;;;;10.78;53.00;103591.84;5033419;28;48008;-77
2022/03/18 09:21:27;;;;;;;;;16.00;14.67;;;;;10.86;52.51;103598.44;5018177;28;45493;-78
2022/03/18 09:23:53;;;;;;;;;15.50;12.75;;;;;10.93;52.36;103610.28;5013186;28;49940;-77
2022/03/18 09:26:18;;;;;;;;;16.33;11.33;;;;;10.97;52.03;103613.19;5001282;28;49417;-77
2022/03/18 09:28:43;;;;;;;;;16.00;11.25;;;;;11.02;50.79;103614.34;5013032;28;58865;-77
2022/03/18 09:31:09;;;;;;;;;15.33;15.00;;;;;11.06;51.90;103596.88;5032042;28;50223;-78
2022/03/18 09:33:35;;;;;;;;;20.50;15.75;;;;;11.11;51.94;103605.97;5021247;28;45269;-79
2022/03/18 09:36:00;;;;;;;;;17.00;15.00;;;;;11.09;52.25;103583.84;5030875;28;46158;-77
2022/03/18 09:38:26;;;;;;;;;14.00;12.00;;;;;11.25;51.87;103612.00;5037457;28;46203;-75
2022/03/18 09:40:51;;;;;;;;;13.67;12.00;;;;;11.30;50.81;103596.38;5026952;28;46161;-78
2022/03/18 09:43:17;;;;;;;;;15.33;15.00;;;;;11.38;51.15;103613.53;5034329;28;49462;-77
2022/03/18 09:45:43;;;;;;;;;16.00;11.33;;;;;11.43;51.45;103602.38;5001041;28;45575;-78
2022/03/18 09:48:09;;;;;;;;;12.00;10.67;;;;;11.49;50.61;103600.03;5031762;28;47803;-77
2022/03/18 09:50:35;;;;;;;;;16.00;15.00;;;;;11.51;51.03;103598.38;5024000;28;45502;-76
2022/03/18 09:53:01;;;;;;;;;15.00;11.00;;;;;11.60;50.69;103592.66;5006054;28;45302;-77
2022/03/18 09:55:26;;;;;;;;;14.67;10.33;;;;;11.74;50.69;103603.94;5036155;28;45556;-77
2022/03/18 09:57:52;;;;;;;;;13.67;11.33;;;;;11.77;50.37;103602.38;5018708;28;48183;-76
2022/03/18 10:00:17;;;;;;;;;14.67;10.33;;;;;11.76;49.81;103578.44;5024373;28;45311;-77
2022/03/18 10:02:43;;;;;;;;;18.67;15.67;;;;;11.90;49.19;103595.97;5039269;28;46065;-78
2022/03/18 10:05:10;;;;;;;;;15.67;12.00;;;;;11.95;49.54;103591.81;5040800;28;45326;-77
2022/03/18 10:07:35;;;;;;;;;13.00;9.33;;;;;12.02;49.72;103588.63;5020869;28;48432;-77
2022/03/18 10:10:10;;;;;;;;;10.00;9.33;;;;;12.14;49.28;103592.69;5004369;28;45202;-77
2022/03/18 10:12:36;;;;;;;;;7.00;6.00;;;;;12.17;47.38;103584.91;5032208;28;45253;-76
2022/03/18 10:15:08;;;;;;;;;7.67;5.67;;;;;12.27;47.51;103592.47;5028740;28;45220;-77
2022/03/18 10:17:47;;;;;;;;;9.33;9.00;;;;;12.32;46.41;103586.56;5007674;28;48771;-77
2022/03/18 10:20:23;;;;;;;;;10.00;7.67;;;;;12.40;46.74;103600.16;5040498;28;45329;-76
2022/03/18 10:22:49;;;;;;;;;8.67;6.00;;;;;12.39;43.44;103570.97;5052100;28;45486;-77
2022/03/18 10:25:39;;;;;;;;;10.00;6.00;;;;;12.53;43.76;103589.34;5020722;28;45546;-76
2022/03/18 10:28:05;;;;;;;;;9.00;7.00;;;;;12.59;44.01;103586.06;5043534;28;46040;-77
2022/03/18 10:30:31;;;;;;;;;10.00;7.67;;;;;12.61;42.89;103578.16;5038168;28;45257;-77
2022/03/18 10:32:56;;;;;;;;;10.00;6.00;;;;;12.65;43.99;103574.84;5056114;28;45489;-77
2022/03/18 10:38:34;;;;;;;;;9.33;6.67;;;;;12.78;44.13;103572.84;5036697;28;46568;-77
2022/03/18 10:41:04;;;;;;;;;7.33;7.00;;;;;12.82;43.54;103566.81;5005147;28;45568;-75
2022/03/18 10:43:30;;;;;;;;;14.00;8.00;;;;;12.91;44.05;103565.44;5037443;28;45530;-76
2022/03/18 10:46:08;;;;;;;;;12.00;7.00;;;;;12.97;44.07;103556.00;5022230;28;45771;-76
2022/03/18 10:48:33;;;;;;;;;6.33;6.33;;;;;12.96;43.27;103553.28;5037682;28;45441;-76
2022/03/18 10:51:06;;;;;;;;;8.00;8.00;;;;;13.10;43.12;103568.97;5022479;28;47210;-76
2022/03/18 10:53:32;;;;;;;;;7.00;7.00;;;;;13.17;42.26;103555.97;5023384;28;45338;-76
2022/03/18 10:56:01;;;;;;;;;6.00;4.33;;;;;13.17;40.79;103555.97;5038338;28;45526;-77
2022/03/18 10:58:29;;;;;;;;;6.00;6.00;;;;;13.20;39.67;103550.78;5028932;28;48764;-76
2022/03/18 11:00:56;;;;;;;;;6.67;5.67;;;;;13.26;40.29;103554.69;5022000;28;46467;-76
2022/03/18 11:03:22;;;;;;;;;7.00;7.00;;;;;13.36;41.04;103559.50;5021187;28;45510;-77
2022/03/18 11:05:51;;;;;;;;;8.33;7.00;;;;;13.43;41.22;103560.72;5020694;28;48959;-77
2022/03/18 11:08:21;;;;;;;;;7.00;5.33;;;;;13.48;39.12;103559.16;5040180;28;45791;-78
2022/03/18 11:11:07;;;;;;;;;8.00;7.00;;;;;13.52;40.61;103552.22;5016014;28;45383;-77
2022/03/18 11:13:38;;;;;;;;;5.67;5.67;;;;;13.53;39.74;103548.69;5022526;28;45318;-75
2022/03/18 11:16:03;;;;;;;;;10.33;7.00;;;;;13.65;39.94;103559.88;5018877;28;45425;-75
2022/03/18 11:18:29;;;;;;;;;7.00;7.00;;;;;13.72;39.79;103545.09;5005656;28;61776;-77
2022/03/18 11:20:56;;;;;;;;;10.67;7.33;;;;;13.79;39.29;103545.38;5020085;28;45447;-76
2022/03/18 11:23:25;;;;;;;;;7.33;7.33;;;;;13.81;39.84;103530.44;5016806;28;45384;-76
2022/03/18 11:25:55;;;;;;;;;5.67;5.67;;;;;13.91;39.69;103544.09;5057337;28;45455;-77
2022/03/18 11:28:20;;;;;;;;;9.33;7.00;;;;;13.96;36.98;103539.88;5039683;28;46453;-77
2022/03/18 11:30:50;;;;;;;;;7.33;6.00;;;;;14.04;39.22;103543.75;5005941;28;45505;-76
2022/03/18 11:33:15;;;;;;;;;4.00;4.00;;;;;14.12;38.44;103551.19;5039059;28;45302;-76